Lady Mary — WCY4834 — position and weather

sailwx.info

Track history (hours):
 
Tides and Currents Weather Stations Pressure Air Temp Water Temp Dewpoint Dewpoint Depression Visibility Wind Speed Wind Dir Waves Ship Positions

Lady Mary

Owner: BLACKMAN, JOHN H, SEATTLE, WA. More information available from US FCC via Universal Licensing System and Coast Guard Vessel Documentation Center.

Last reported at 2016-Aug-25 09:32 UTC. Time now 2016-Aug-25 09:47 UTC.
Position N 47°40' W 122°13'.

Length 26 m.

Type: Passenger vessel. MMSI: 367013060.

Date/timePositionNaut miles runAvg speedWind from/ knotsBaromVisibWave heightAir tempDewpointWater temp
2016-Aug-25 09:32N 47°40' W 122°13'0 0.0
2016-Aug-25 08:33N 47°40' W 122°13'0 0.0
2016-Aug-25 07:33N 47°40' W 122°13'0 0.0
2016-Aug-25 06:28N 47°40' W 122°13'0 0.0
2016-Aug-25 04:30N 47°40' W 122°13'0 0.0
2016-Aug-25 03:30N 47°40' W 122°13'0 0.0
2016-Aug-25 02:31N 47°40' W 122°13'0 0.0
2016-Aug-25 01:32N 47°40' W 122°13'0 0.0
2016-Aug-25 00:32N 47°40' W 122°13'0 0.0
2016-Aug-24 23:27N 47°40' W 122°13'0 0.0
2016-Aug-24 22:28N 47°40' W 122°13'0 0.0
2016-Aug-24 21:28N 47°40' W 122°13'0 0.0
2016-Aug-24 20:29N 47°40' W 122°13'3 3.4
2016-Aug-24 19:33N 47°38' W 122°15'3 3.1
2016-Aug-24 18:33N 47°40' W 122°13'0 0.0
2016-Aug-24 17:33N 47°40' W 122°13'0 0.0
2016-Aug-24 16:33N 47°40' W 122°13'0 0.0
2016-Aug-24 15:31N 47°40' W 122°13'0 0.0
2016-Aug-24 14:32N 47°40' W 122°13'0 0.0
2016-Aug-24 13:26N 47°40' W 122°13'0 0.0
2016-Aug-24 12:33N 47°40' W 122°13'0 0.0
2016-Aug-24 11:31N 47°40' W 122°13'0 0.0
2016-Aug-24 10:31N 47°40' W 122°13'0 0.0
2016-Aug-24 09:32N 47°40' W 122°13'0 0.0
2016-Aug-24 08:33N 47°40' W 122°13'0 0.0
2016-Aug-24 07:33N 47°40' W 122°13'0 0.0
2016-Aug-24 06:31N 47°40' W 122°13'0 0.0
2016-Aug-24 04:26N 47°40' W 122°13'0 0.0
2016-Aug-24 03:33N 47°40' W 122°13'0 0.0
2016-Aug-24 02:28N 47°40' W 122°13'0 0.0
2016-Aug-24 01:31N 47°40' W 122°13'0 0.0
2016-Aug-24 00:32N 47°40' W 122°13'0 0.0
2016-Aug-23 23:33N 47°40' W 122°13'0 0.0
2016-Aug-23 22:33N 47°40' W 122°13'0 0.0
2016-Aug-23 21:31N 47°40' W 122°13'0 0.0
2016-Aug-23 20:32N 47°40' W 122°13'3 3.2
2016-Aug-23 19:33N 47°38' W 122°15'3 2.9
2016-Aug-23 18:31N 47°40' W 122°13'0 0.0
2016-Aug-23 17:31N 47°40' W 122°13'0 0.0
2016-Aug-23 16:32N 47°40' W 122°13'0 0.0
2016-Aug-23 15:33N 47°40' W 122°13'0 0.0
2016-Aug-23 14:27N 47°40' W 122°13'0 0.0
2016-Aug-23 13:31N 47°40' W 122°13'0 0.0
2016-Aug-23 12:32N 47°40' W 122°13'0 0.0
2016-Aug-23 11:32N 47°40' W 122°13'0 0.0
2016-Aug-23 10:33N 47°40' W 122°13'0 0.0
2016-Aug-23 09:31N 47°40' W 122°13'0 0.0
2016-Aug-23 08:28N 47°40' W 122°13'0 0.0
2016-Aug-23 07:32N 47°40' W 122°13'0 0.0
2016-Aug-23 06:33N 47°40' W 122°13'0 0.0
2016-Aug-23 05:33N 47°40' W 122°13'6 5.9
2016-Aug-23 04:33N 47°38' W 122°20'1 0.8
2016-Aug-23 03:33N 47°38' W 122°20'4 3.9
2016-Aug-23 02:33N 47°37' W 122°15'3 2.8
2016-Aug-23 01:31N 47°39' W 122°19'2 1.7
2016-Aug-23 00:33N 47°38' W 122°20'0 0.0
2016-Aug-22 23:33N 47°38' W 122°20'0 0.5
2016-Aug-22 22:33N 47°38' W 122°20'1 0.7
2016-Aug-22 21:33N 47°39' W 122°21'4 3.8
2016-Aug-22 20:33N 47°39' W 122°15'2 2.2
2016-Aug-22 19:34N 47°37' W 122°15'3 3.5
2016-Aug-22 18:33N 47°40' W 122°13'0 0.0
2016-Aug-22 17:31N 47°40' W 122°13'0 0.0
2016-Aug-22 16:29N 47°40' W 122°13'0 0.0
2016-Aug-22 15:33N 47°40' W 122°13'0 0.0
2016-Aug-22 14:33N 47°40' W 122°13'0 0.0
2016-Aug-22 13:31N 47°40' W 122°13'0 0.0
2016-Aug-22 12:32N 47°40' W 122°13'0 0.0
2016-Aug-22 11:32N 47°40' W 122°13'0 0.0
2016-Aug-22 10:33N 47°40' W 122°13'0 0.0
2016-Aug-22 09:31N 47°40' W 122°13'0 0.0
2016-Aug-22 08:31N 47°40' W 122°13'0 0.0
2016-Aug-22 07:32N 47°40' W 122°13'0 0.0
2016-Aug-22 06:33N 47°40' W 122°13'0 0.0
2016-Aug-22 05:30N 47°40' W 122°13'0 0.0
2016-Aug-22 04:28N 47°40' W 122°13'0 0.0
2016-Aug-22 03:26N 47°40' W 122°13'0 0.0
2016-Aug-22 02:32N 47°40' W 122°13'0 0.0
2016-Aug-22 01:33N 47°40' W 122°13'0 0.0
2016-Aug-22 00:33N 47°40' W 122°13'3 2.9
2016-Aug-21 23:33N 47°38' W 122°15'3 2.9
2016-Aug-21 22:33N 47°40' W 122°13'3 3.1
2016-Aug-21 21:33N 47°38' W 122°15'3 3.1
2016-Aug-21 20:33N 47°40' W 122°13'3 3.3
2016-Aug-21 19:33N 47°38' W 122°15'3 3.0
2016-Aug-21 18:29N 47°40' W 122°13'0 0.0
2016-Aug-21 17:33N 47°40' W 122°13'0 0.0
2016-Aug-21 16:33N 47°40' W 122°13'0 0.0
2016-Aug-21 15:31N 47°40' W 122°13'0 0.0
2016-Aug-21 14:32N 47°40' W 122°13'0 0.0
2016-Aug-21 13:30N 47°40' W 122°13'0 0.0
2016-Aug-21 12:33N 47°40' W 122°13'0 0.0
2016-Aug-21 11:31N 47°40' W 122°13'0 0.0
2016-Aug-21 10:31N 47°40' W 122°13'0 0.0
2016-Aug-21 09:32N 47°40' W 122°13'0 0.0
2016-Aug-21 08:33N 47°40' W 122°13'0 0.0
2016-Aug-21 07:33N 47°40' W 122°13'0 0.0
2016-Aug-21 06:31N 47°40' W 122°13'0 0.0
2016-Aug-21 05:32N 47°40' W 122°13'4 3.8
2016-Aug-21 04:33N 47°39' W 122°17'0 0.2
2016-Aug-21 03:33N 47°39' W 122°18'3 2.5
2016-Aug-21 02:33N 47°39' W 122°14'2 1.6
2016-Aug-21 01:33N 47°40' W 122°13'0 0.0
2016-Aug-21 00:19N 47°40' W 122°13'4 4.8
2016-Aug-20 23:33N 47°37' W 122°15'4 3.3
2016-Aug-20 22:28N 47°40' W 122°13'3 3.7
2016-Aug-20 21:33N 47°37' W 122°15'3 3.3
2016-Aug-20 20:33N 47°40' W 122°13'4 3.7
2016-Aug-20 19:33N 47°37' W 122°15'4 3.4
2016-Aug-20 18:29N 47°40' W 122°13'0 0.0
2016-Aug-20 17:32N 47°40' W 122°13'0 0.0
2016-Aug-20 16:30N 47°40' W 122°13'0 0.0
2016-Aug-20 15:31N 47°40' W 122°13'0 0.0
2016-Aug-20 14:31N 47°40' W 122°13'0 0.0
2016-Aug-20 13:29N 47°40' W 122°13'0 0.0
2016-Aug-20 12:33N 47°40' W 122°13'0 0.0
2016-Aug-20 11:33N 47°40' W 122°13'0 0.0
2016-Aug-20 10:31N 47°40' W 122°13'0 0.0
2016-Aug-20 09:32N 47°40' W 122°13'0 0.0
2016-Aug-20 08:32N 47°40' W 122°13'0 0.0
2016-Aug-20 07:33N 47°40' W 122°13'0 0.0
2016-Aug-20 06:31N 47°40' W 122°13'0 0.0
2016-Aug-20 05:31N 47°40' W 122°13'0 0.0
2016-Aug-20 04:32N 47°40' W 122°13'0 0.0
2016-Aug-20 03:33N 47°40' W 122°13'0 0.0
2016-Aug-20 02:30N 47°40' W 122°13'0 0.0
2016-Aug-20 01:31N 47°40' W 122°13'0 0.0
2016-Aug-20 00:26N 47°40' W 122°13'0 0.0
2016-Aug-19 23:32N 47°40' W 122°13'0 0.0
2016-Aug-19 22:33N 47°40' W 122°13'0 0.0
2016-Aug-19 21:31N 47°40' W 122°13'2 2.3
2016-Aug-19 20:33N 47°39' W 122°15'3 3.4
2016-Aug-19 19:31N 47°39' W 122°20'3 2.8
2016-Aug-19 18:33N 47°39' W 122°16'3 2.5
2016-Aug-19 17:31N 47°40' W 122°13'0 0.0
2016-Aug-19 16:32N 47°40' W 122°13'0 0.0
2016-Aug-19 15:32N 47°40' W 122°13'0 0.0
2016-Aug-19 14:33N 47°40' W 122°13'0 0.0
2016-Aug-19 13:25N 47°40' W 122°13'0 0.0
2016-Aug-19 12:31N 47°40' W 122°13'0 0.0
2016-Aug-19 11:32N 47°40' W 122°13'0 0.0
2016-Aug-19 10:33N 47°40' W 122°13'0 0.0
2016-Aug-19 09:24N 47°40' W 122°13'0 0.0
2016-Aug-19 08:31N 47°40' W 122°13'0 0.0
2016-Aug-19 07:32N 47°40' W 122°13'0 0.0
2016-Aug-19 06:32N 47°40' W 122°13'0 0.0
2016-Aug-19 05:33N 47°40' W 122°13'0 0.0
2016-Aug-19 04:31N 47°40' W 122°13'0 0.5
2016-Aug-19 03:34N 47°40' W 122°13'6 6.4
2016-Aug-19 02:34N 47°40' W 122°23'2 1.8
2016-Aug-19 01:34N 47°41' W 122°25'5 5.1
2016-Aug-19 00:32N 47°36' W 122°20'1 1.4
2016-Aug-18 23:33N 47°36' W 122°22'4 4.3
2016-Aug-18 22:33N 47°37' W 122°29'3 3.3
2016-Aug-18 21:34N 47°38' W 122°24'3 2.8
2016-Aug-18 20:33N 47°36' W 122°20'0 0.0
2016-Aug-18 19:31N 47°36' W 122°20'0 0.0
2016-Aug-18 18:32N 47°36' W 122°20'0 0.0
2016-Aug-18 17:29N 47°36' W 122°20'0 0.0
2016-Aug-18 16:33N 47°36' W 122°20'0 0.0
2016-Aug-18 15:33N 47°36' W 122°20'0 0.0
2016-Aug-18 14:31N 47°36' W 122°20'0 0.0
2016-Aug-18 13:32N 47°36' W 122°20'0 0.0
2016-Aug-18 12:32N 47°36' W 122°20'0 0.0
2016-Aug-18 11:33N 47°36' W 122°20'0 0.0
2016-Aug-18 10:33N 47°36' W 122°20'0 0.0
2016-Aug-18 09:32N 47°36' W 122°20'0 0.0
2016-Aug-18 08:30N 47°36' W 122°20'0 0.0
2016-Aug-18 07:32N 47°36' W 122°20'0 0.0
2016-Aug-18 06:30N 47°36' W 122°20'0 0.0
2016-Aug-18 05:33N 47°36' W 122°20'0 0.0
2016-Aug-18 04:32N 47°36' W 122°20'0 0.0
2016-Aug-18 03:33N 47°36' W 122°20'0 0.3
2016-Aug-18 02:33N 47°37' W 122°21'0 0.0
2016-Aug-18 01:33N 47°37' W 122°21'1 1.3
2016-Aug-18 00:33N 47°35' W 122°21'1 1.3
2016-Aug-17 23:33N 47°37' W 122°21'0 0.0
2016-Aug-17 22:32N 47°37' W 122°21'0 0.0
2016-Aug-17 21:30N 47°37' W 122°21'5 5.3
2016-Aug-17 20:33N 47°41' W 122°25'5 4.4
2016-Aug-17 19:28N 47°39' W 122°18'4 4.8
2016-Aug-17 18:34N 47°40' W 122°13'0 0.0
2016-Aug-17 17:33N 47°40' W 122°13'0 0.0
2016-Aug-17 16:33N 47°40' W 122°13'0 0.0
2016-Aug-17 15:34N 47°40' W 122°13'0 0.0
2016-Aug-17 14:33N 47°40' W 122°13'0 0.0
2016-Aug-17 13:33N 47°40' W 122°13'0 0.0
2016-Aug-17 12:33N 47°40' W 122°13'0 0.0
2016-Aug-17 11:33N 47°40' W 122°13'0 0.0
2016-Aug-17 10:33N 47°40' W 122°13'0 0.0
2016-Aug-17 09:33N 47°40' W 122°13'0 0.0
2016-Aug-17 08:33N 47°40' W 122°13'0 0.0
2016-Aug-17 07:33N 47°40' W 122°13'0 0.0
2016-Aug-17 06:33N 47°40' W 122°13'0 0.0
2016-Aug-17 05:33N 47°40' W 122°13'0 0.0
2016-Aug-17 04:33N 47°40' W 122°13'0 0.0
2016-Aug-17 03:33N 47°40' W 122°13'0 0.0
2016-Aug-17 02:34N 47°40' W 122°13'0 0.0
2016-Aug-17 01:34N 47°40' W 122°13'0 0.0
2016-Aug-17 00:33N 47°40' W 122°13'0 0.0
2016-Aug-16 23:34N 47°40' W 122°13'0 0.0
2016-Aug-16 22:34N 47°40' W 122°13'0 0.0
2016-Aug-16 21:34N 47°40' W 122°13'0 0.0
2016-Aug-16 20:33N 47°40' W 122°13'4 3.9
2016-Aug-16 19:31N 47°36' W 122°14'4 4.3
2016-Aug-16 18:34N 47°40' W 122°13'0 0.0
2016-Aug-16 17:33N 47°40' W 122°13'0 0.0
2016-Aug-16 16:32N 47°40' W 122°13'0 0.0
2016-Aug-16 15:32N 47°40' W 122°13'0 0.0
2016-Aug-16 14:30N 47°40' W 122°13'0 0.0
2016-Aug-16 13:31N 47°40' W 122°13'0 0.0
2016-Aug-16 12:31N 47°40' W 122°13'0 0.0
2016-Aug-16 11:29N 47°40' W 122°13'0 0.0
2016-Aug-16 10:24N 47°40' W 122°13'0 0.0
2016-Aug-16 09:31N 47°40' W 122°13'0 0.0
2016-Aug-16 08:31N 47°40' W 122°13'0 0.0
2016-Aug-16 07:29N 47°40' W 122°13'0 0.0
2016-Aug-16 04:28N 47°40' W 122°13'0 0.0
2016-Aug-16 03:31N 47°40' W 122°13'0 0.0
2016-Aug-16 02:26N 47°40' W 122°13'0 0.0
2016-Aug-16 01:33N 47°40' W 122°13'0 0.0
2016-Aug-16 00:33N 47°40' W 122°13'0 0.0
2016-Aug-15 23:31N 47°40' W 122°13'0 0.0
2016-Aug-15 22:32N 47°40' W 122°13'0 0.0
2016-Aug-15 21:32N 47°40' W 122°13'0 0.0
2016-Aug-15 20:30N 47°40' W 122°13'4 4.3
2016-Aug-15 19:33N 47°36' W 122°14'4 3.4
2016-Aug-15 18:22N 47°40' W 122°13'0 0.0
2016-Aug-15 17:32N 47°40' W 122°13'0 0.0
2016-Aug-15 16:33N 47°40' W 122°13'0 0.0
2016-Aug-15 15:33N 47°40' W 122°13'0 0.0
2016-Aug-15 14:28N 47°40' W 122°13'0 0.0
2016-Aug-15 13:29N 47°40' W 122°13'0 0.0
2016-Aug-15 12:32N 47°40' W 122°13'0 0.0
2016-Aug-15 11:33N 47°40' W 122°13'0 0.0
2016-Aug-15 10:34N 47°40' W 122°13'0 0.0
2016-Aug-15 09:31N 47°40' W 122°13'  
Track history (hours):
 
Tides and Currents Weather Stations Pressure Air Temp Water Temp Dewpoint Dewpoint Depression Visibility Wind Speed Wind Dir Waves Ship Positions

Lady Mary

Owner: BLACKMAN, JOHN H, SEATTLE, WA. More information available from US FCC via Universal Licensing System and Coast Guard Vessel Documentation Center.

Last reported at 2016-Aug-25 09:32 UTC. Time now 2016-Aug-25 09:47 UTC.
Position N 47°40' W 122°13'.

Length 26 m.

Type: Passenger vessel. MMSI: 367013060.

Date/timePositionNaut miles runAvg speedWind from/ knotsBaromVisibWave heightAir tempDewpointWater temp
2016-Aug-25 09:32N 47°40' W 122°13'0 0.0
2016-Aug-25 08:33N 47°40' W 122°13'0 0.0
2016-Aug-25 07:33N 47°40' W 122°13'0 0.0
2016-Aug-25 06:28N 47°40' W 122°13'0 0.0
2016-Aug-25 04:30N 47°40' W 122°13'0 0.0
2016-Aug-25 03:30N 47°40' W 122°13'0 0.0
2016-Aug-25 02:31N 47°40' W 122°13'0 0.0
2016-Aug-25 01:32N 47°40' W 122°13'0 0.0
2016-Aug-25 00:32N 47°40' W 122°13'0 0.0
2016-Aug-24 23:27N 47°40' W 122°13'0 0.0
2016-Aug-24 22:28N 47°40' W 122°13'0 0.0
2016-Aug-24 21:28N 47°40' W 122°13'0 0.0
2016-Aug-24 20:29N 47°40' W 122°13'3 3.4
2016-Aug-24 19:33N 47°38' W 122°15'3 3.1
2016-Aug-24 18:33N 47°40' W 122°13'0 0.0
2016-Aug-24 17:33N 47°40' W 122°13'0 0.0
2016-Aug-24 16:33N 47°40' W 122°13'0 0.0
2016-Aug-24 15:31N 47°40' W 122°13'0 0.0
2016-Aug-24 14:32N 47°40' W 122°13'0 0.0
2016-Aug-24 13:26N 47°40' W 122°13'0 0.0
2016-Aug-24 12:33N 47°40' W 122°13'0 0.0
2016-Aug-24 11:31N 47°40' W 122°13'0 0.0
2016-Aug-24 10:31N 47°40' W 122°13'0 0.0
2016-Aug-24 09:32N 47°40' W 122°13'0 0.0
2016-Aug-24 08:33N 47°40' W 122°13'0 0.0
2016-Aug-24 07:33N 47°40' W 122°13'0 0.0
2016-Aug-24 06:31N 47°40' W 122°13'0 0.0
2016-Aug-24 04:26N 47°40' W 122°13'0 0.0
2016-Aug-24 03:33N 47°40' W 122°13'0 0.0
2016-Aug-24 02:28N 47°40' W 122°13'0 0.0
2016-Aug-24 01:31N 47°40' W 122°13'0 0.0
2016-Aug-24 00:32N 47°40' W 122°13'0 0.0
2016-Aug-23 23:33N 47°40' W 122°13'0 0.0
2016-Aug-23 22:33N 47°40' W 122°13'0 0.0
2016-Aug-23 21:31N 47°40' W 122°13'0 0.0
2016-Aug-23 20:32N 47°40' W 122°13'3 3.2
2016-Aug-23 19:33N 47°38' W 122°15'3 2.9
2016-Aug-23 18:31N 47°40' W 122°13'0 0.0
2016-Aug-23 17:31N 47°40' W 122°13'0 0.0
2016-Aug-23 16:32N 47°40' W 122°13'0 0.0
2016-Aug-23 15:33N 47°40' W 122°13'0 0.0
2016-Aug-23 14:27N 47°40' W 122°13'0 0.0
2016-Aug-23 13:31N 47°40' W 122°13'0 0.0
2016-Aug-23 12:32N 47°40' W 122°13'0 0.0
2016-Aug-23 11:32N 47°40' W 122°13'0 0.0
2016-Aug-23 10:33N 47°40' W 122°13'0 0.0
2016-Aug-23 09:31N 47°40' W 122°13'0 0.0
2016-Aug-23 08:28N 47°40' W 122°13'0 0.0
2016-Aug-23 07:32N 47°40' W 122°13'0 0.0
2016-Aug-23 06:33N 47°40' W 122°13'0 0.0
2016-Aug-23 05:33N 47°40' W 122°13'6 5.9
2016-Aug-23 04:33N 47°38' W 122°20'1 0.8
2016-Aug-23 03:33N 47°38' W 122°20'4 3.9
2016-Aug-23 02:33N 47°37' W 122°15'3 2.8
2016-Aug-23 01:31N 47°39' W 122°19'2 1.7
2016-Aug-23 00:33N 47°38' W 122°20'0 0.0
2016-Aug-22 23:33N 47°38' W 122°20'0 0.5
2016-Aug-22 22:33N 47°38' W 122°20'1 0.7
2016-Aug-22 21:33N 47°39' W 122°21'4 3.8
2016-Aug-22 20:33N 47°39' W 122°15'2 2.2
2016-Aug-22 19:34N 47°37' W 122°15'3 3.5
2016-Aug-22 18:33N 47°40' W 122°13'0 0.0
2016-Aug-22 17:31N 47°40' W 122°13'0 0.0
2016-Aug-22 16:29N 47°40' W 122°13'0 0.0
2016-Aug-22 15:33N 47°40' W 122°13'0 0.0
2016-Aug-22 14:33N 47°40' W 122°13'0 0.0
2016-Aug-22 13:31N 47°40' W 122°13'0 0.0
2016-Aug-22 12:32N 47°40' W 122°13'0 0.0
2016-Aug-22 11:32N 47°40' W 122°13'0 0.0
2016-Aug-22 10:33N 47°40' W 122°13'0 0.0
2016-Aug-22 09:31N 47°40' W 122°13'0 0.0
2016-Aug-22 08:31N 47°40' W 122°13'0 0.0
2016-Aug-22 07:32N 47°40' W 122°13'0 0.0
2016-Aug-22 06:33N 47°40' W 122°13'0 0.0
2016-Aug-22 05:30N 47°40' W 122°13'0 0.0
2016-Aug-22 04:28N 47°40' W 122°13'0 0.0
2016-Aug-22 03:26N 47°40' W 122°13'0 0.0
2016-Aug-22 02:32N 47°40' W 122°13'0 0.0
2016-Aug-22 01:33N 47°40' W 122°13'0 0.0
2016-Aug-22 00:33N 47°40' W 122°13'3 2.9
2016-Aug-21 23:33N 47°38' W 122°15'3 2.9
2016-Aug-21 22:33N 47°40' W 122°13'3 3.1
2016-Aug-21 21:33N 47°38' W 122°15'3 3.1
2016-Aug-21 20:33N 47°40' W 122°13'3 3.3
2016-Aug-21 19:33N 47°38' W 122°15'3 3.0
2016-Aug-21 18:29N 47°40' W 122°13'0 0.0
2016-Aug-21 17:33N 47°40' W 122°13'0 0.0
2016-Aug-21 16:33N 47°40' W 122°13'0 0.0
2016-Aug-21 15:31N 47°40' W 122°13'0 0.0
2016-Aug-21 14:32N 47°40' W 122°13'0 0.0
2016-Aug-21 13:30N 47°40' W 122°13'0 0.0
2016-Aug-21 12:33N 47°40' W 122°13'0 0.0
2016-Aug-21 11:31N 47°40' W 122°13'0 0.0
2016-Aug-21 10:31N 47°40' W 122°13'0 0.0
2016-Aug-21 09:32N 47°40' W 122°13'0 0.0
2016-Aug-21 08:33N 47°40' W 122°13'0 0.0
2016-Aug-21 07:33N 47°40' W 122°13'0 0.0
2016-Aug-21 06:31N 47°40' W 122°13'0 0.0
2016-Aug-21 05:32N 47°40' W 122°13'4 3.8
2016-Aug-21 04:33N 47°39' W 122°17'0 0.2
2016-Aug-21 03:33N 47°39' W 122°18'3 2.5
2016-Aug-21 02:33N 47°39' W 122°14'2 1.6
2016-Aug-21 01:33N 47°40' W 122°13'0 0.0
2016-Aug-21 00:19N 47°40' W 122°13'4 4.8
2016-Aug-20 23:33N 47°37' W 122°15'4 3.3
2016-Aug-20 22:28N 47°40' W 122°13'3 3.7
2016-Aug-20 21:33N 47°37' W 122°15'3 3.3
2016-Aug-20 20:33N 47°40' W 122°13'4 3.7
2016-Aug-20 19:33N 47°37' W 122°15'4 3.4
2016-Aug-20 18:29N 47°40' W 122°13'0 0.0
2016-Aug-20 17:32N 47°40' W 122°13'0 0.0
2016-Aug-20 16:30N 47°40' W 122°13'0 0.0
2016-Aug-20 15:31N 47°40' W 122°13'0 0.0
2016-Aug-20 14:31N 47°40' W 122°13'0 0.0
2016-Aug-20 13:29N 47°40' W 122°13'0 0.0
2016-Aug-20 12:33N 47°40' W 122°13'0 0.0
2016-Aug-20 11:33N 47°40' W 122°13'0 0.0
2016-Aug-20 10:31N 47°40' W 122°13'0 0.0
2016-Aug-20 09:32N 47°40' W 122°13'0 0.0
2016-Aug-20 08:32N 47°40' W 122°13'0 0.0
2016-Aug-20 07:33N 47°40' W 122°13'0 0.0
2016-Aug-20 06:31N 47°40' W 122°13'0 0.0
2016-Aug-20 05:31N 47°40' W 122°13'0 0.0
2016-Aug-20 04:32N 47°40' W 122°13'0 0.0
2016-Aug-20 03:33N 47°40' W 122°13'0 0.0
2016-Aug-20 02:30N 47°40' W 122°13'0 0.0
2016-Aug-20 01:31N 47°40' W 122°13'0 0.0
2016-Aug-20 00:26N 47°40' W 122°13'0 0.0
2016-Aug-19 23:32N 47°40' W 122°13'0 0.0
2016-Aug-19 22:33N 47°40' W 122°13'0 0.0
2016-Aug-19 21:31N 47°40' W 122°13'2 2.3
2016-Aug-19 20:33N 47°39' W 122°15'3 3.4
2016-Aug-19 19:31N 47°39' W 122°20'3 2.8
2016-Aug-19 18:33N 47°39' W 122°16'3 2.5
2016-Aug-19 17:31N 47°40' W 122°13'0 0.0
2016-Aug-19 16:32N 47°40' W 122°13'0 0.0
2016-Aug-19 15:32N 47°40' W 122°13'0 0.0
2016-Aug-19 14:33N 47°40' W 122°13'0 0.0
2016-Aug-19 13:25N 47°40' W 122°13'0 0.0
2016-Aug-19 12:31N 47°40' W 122°13'0 0.0
2016-Aug-19 11:32N 47°40' W 122°13'0 0.0
2016-Aug-19 10:33N 47°40' W 122°13'0 0.0
2016-Aug-19 09:24N 47°40' W 122°13'0 0.0
2016-Aug-19 08:31N 47°40' W 122°13'0 0.0
2016-Aug-19 07:32N 47°40' W 122°13'0 0.0
2016-Aug-19 06:32N 47°40' W 122°13'0 0.0
2016-Aug-19 05:33N 47°40' W 122°13'0 0.0
2016-Aug-19 04:31N 47°40' W 122°13'0 0.5
2016-Aug-19 03:34N 47°40' W 122°13'6 6.4
2016-Aug-19 02:34N 47°40' W 122°23'2 1.8
2016-Aug-19 01:34N 47°41' W 122°25'5 5.1
2016-Aug-19 00:32N 47°36' W 122°20'1 1.4
2016-Aug-18 23:33N 47°36' W 122°22'4 4.3
2016-Aug-18 22:33N 47°37' W 122°29'3 3.3
2016-Aug-18 21:34N 47°38' W 122°24'3 2.8
2016-Aug-18 20:33N 47°36' W 122°20'0 0.0
2016-Aug-18 19:31N 47°36' W 122°20'0 0.0
2016-Aug-18 18:32N 47°36' W 122°20'0 0.0
2016-Aug-18 17:29N 47°36' W 122°20'0 0.0
2016-Aug-18 16:33N 47°36' W 122°20'0 0.0
2016-Aug-18 15:33N 47°36' W 122°20'0 0.0
2016-Aug-18 14:31N 47°36' W 122°20'0 0.0
2016-Aug-18 13:32N 47°36' W 122°20'0 0.0
2016-Aug-18 12:32N 47°36' W 122°20'0 0.0
2016-Aug-18 11:33N 47°36' W 122°20'0 0.0
2016-Aug-18 10:33N 47°36' W 122°20'0 0.0
2016-Aug-18 09:32N 47°36' W 122°20'0 0.0
2016-Aug-18 08:30N 47°36' W 122°20'0 0.0
2016-Aug-18 07:32N 47°36' W 122°20'0 0.0
2016-Aug-18 06:30N 47°36' W 122°20'0 0.0
2016-Aug-18 05:33N 47°36' W 122°20'0 0.0
2016-Aug-18 04:32N 47°36' W 122°20'0 0.0
2016-Aug-18 03:33N 47°36' W 122°20'0 0.3
2016-Aug-18 02:33N 47°37' W 122°21'0 0.0
2016-Aug-18 01:33N 47°37' W 122°21'1 1.3
2016-Aug-18 00:33N 47°35' W 122°21'1 1.3
2016-Aug-17 23:33N 47°37' W 122°21'0 0.0
2016-Aug-17 22:32N 47°37' W 122°21'0 0.0
2016-Aug-17 21:30N 47°37' W 122°21'5 5.3
2016-Aug-17 20:33N 47°41' W 122°25'5 4.4
2016-Aug-17 19:28N 47°39' W 122°18'4 4.8
2016-Aug-17 18:34N 47°40' W 122°13'0 0.0
2016-Aug-17 17:33N 47°40' W 122°13'0 0.0
2016-Aug-17 16:33N 47°40' W 122°13'0 0.0
2016-Aug-17 15:34N 47°40' W 122°13'0 0.0
2016-Aug-17 14:33N 47°40' W 122°13'0 0.0
2016-Aug-17 13:33N 47°40' W 122°13'0 0.0
2016-Aug-17 12:33N 47°40' W 122°13'0 0.0
2016-Aug-17 11:33N 47°40' W 122°13'0 0.0
2016-Aug-17 10:33N 47°40' W 122°13'0 0.0
2016-Aug-17 09:33N 47°40' W 122°13'0 0.0
2016-Aug-17 08:33N 47°40' W 122°13'0 0.0
2016-Aug-17 07:33N 47°40' W 122°13'0 0.0
2016-Aug-17 06:33N 47°40' W 122°13'0 0.0
2016-Aug-17 05:33N 47°40' W 122°13'0 0.0
2016-Aug-17 04:33N 47°40' W 122°13'0 0.0
2016-Aug-17 03:33N 47°40' W 122°13'0 0.0
2016-Aug-17 02:34N 47°40' W 122°13'0 0.0
2016-Aug-17 01:34N 47°40' W 122°13'0 0.0
2016-Aug-17 00:33N 47°40' W 122°13'0 0.0
2016-Aug-16 23:34N 47°40' W 122°13'0 0.0
2016-Aug-16 22:34N 47°40' W 122°13'0 0.0
2016-Aug-16 21:34N 47°40' W 122°13'0 0.0
2016-Aug-16 20:33N 47°40' W 122°13'4 3.9
2016-Aug-16 19:31N 47°36' W 122°14'4 4.3
2016-Aug-16 18:34N 47°40' W 122°13'0 0.0
2016-Aug-16 17:33N 47°40' W 122°13'0 0.0
2016-Aug-16 16:32N 47°40' W 122°13'0 0.0
2016-Aug-16 15:32N 47°40' W 122°13'0 0.0
2016-Aug-16 14:30N 47°40' W 122°13'0 0.0
2016-Aug-16 13:31N 47°40' W 122°13'0 0.0
2016-Aug-16 12:31N 47°40' W 122°13'0 0.0
2016-Aug-16 11:29N 47°40' W 122°13'0 0.0
2016-Aug-16 10:24N 47°40' W 122°13'0 0.0
2016-Aug-16 09:31N 47°40' W 122°13'0 0.0
2016-Aug-16 08:31N 47°40' W 122°13'0 0.0
2016-Aug-16 07:29N 47°40' W 122°13'0 0.0
2016-Aug-16 04:28N 47°40' W 122°13'0 0.0
2016-Aug-16 03:31N 47°40' W 122°13'0 0.0
2016-Aug-16 02:26N 47°40' W 122°13'0 0.0
2016-Aug-16 01:33N 47°40' W 122°13'0 0.0
2016-Aug-16 00:33N 47°40' W 122°13'0 0.0
2016-Aug-15 23:31N 47°40' W 122°13'0 0.0
2016-Aug-15 22:32N 47°40' W 122°13'0 0.0
2016-Aug-15 21:32N 47°40' W 122°13'0 0.0
2016-Aug-15 20:30N 47°40' W 122°13'4 4.3
2016-Aug-15 19:33N 47°36' W 122°14'4 3.4
2016-Aug-15 18:22N 47°40' W 122°13'0 0.0
2016-Aug-15 17:32N 47°40' W 122°13'0 0.0
2016-Aug-15 16:33N 47°40' W 122°13'0 0.0
2016-Aug-15 15:33N 47°40' W 122°13'0 0.0
2016-Aug-15 14:28N 47°40' W 122°13'0 0.0
2016-Aug-15 13:29N 47°40' W 122°13'0 0.0
2016-Aug-15 12:32N 47°40' W 122°13'0 0.0
2016-Aug-15 11:33N 47°40' W 122°13'0 0.0
2016-Aug-15 10:34N 47°40' W 122°13'0 0.0
2016-Aug-15 09:31N 47°40' W 122°13'  

Dump ship's entire track history